createdAt,value
2018-03-25T00:41:14.859Z,16.10
2018-03-25T00:43:44.041Z,17.65
2018-03-25T00:46:15.759Z,17.23
2018-03-25T00:48:44.260Z,17.20
2018-03-25T00:51:13.548Z,17.15
2018-03-25T00:53:42.015Z,19.27
2018-03-25T00:56:10.579Z,18.05
2018-03-25T00:58:39.009Z,18.62
2018-03-25T01:01:14.529Z,17.98
2018-03-25T01:03:43.257Z,15.55
2018-03-25T01:06:12.252Z,16.25
2018-03-25T01:08:40.816Z,16.10
2018-03-25T01:11:09.243Z,17.52
2018-03-25T01:13:37.623Z,17.30
2018-03-25T01:16:14.268Z,16.45
2018-03-25T01:18:42.851Z,15.32
2018-03-25T01:21:11.461Z,16.15
2018-03-25T01:23:39.882Z,17.75
2018-03-25T01:26:08.611Z,16.60
2018-03-25T01:28:36.985Z,14.95
2018-03-25T01:31:06.129Z,15.15
2018-03-25T01:33:34.489Z,14.35
2018-03-25T01:36:02.925Z,15.45
2018-03-25T01:38:31.714Z,14.80
2018-03-25T01:41:00.073Z,28.52
2018-03-25T01:43:28.683Z,15.63
2018-03-25T01:45:57.758Z,15.55
2018-03-25T01:48:26.118Z,14.38
2018-03-25T01:50:54.494Z,14.40
2018-03-25T01:53:23.697Z,19.25
2018-03-25T01:55:53.543Z,13.50
2018-03-25T01:58:21.931Z,17.02
2018-03-25T02:00:51.022Z,15.00
2018-03-25T02:03:19.617Z,15.55
2018-03-25T02:05:48.197Z,15.93
2018-03-25T02:08:16.873Z,15.73
2018-03-25T02:10:45.320Z,13.85
2018-03-25T02:13:13.938Z,16.15
2018-03-25T02:15:43.249Z,15.38
2018-03-25T02:18:11.733Z,14.20
2018-03-25T02:20:40.118Z,13.55
2018-03-25T02:23:08.642Z,13.90
2018-03-25T02:25:37.023Z,15.07
2018-03-25T02:28:05.398Z,16.23
2018-03-25T02:30:34.630Z,14.10
2018-03-25T02:33:03.018Z,14.23
2018-03-25T02:35:31.378Z,14.55
2018-03-25T02:38:00.242Z,16.20
2018-03-25T02:40:28.628Z,14.60
2018-03-25T02:42:57.587Z,14.20
2018-03-25T02:45:25.999Z,14.27
2018-03-25T02:47:54.369Z,13.15
2018-03-25T02:50:22.746Z,13.85
2018-03-25T02:52:51.229Z,13.57
2018-03-25T02:55:19.803Z,13.93
2018-03-25T02:57:48.505Z,16.00
2018-03-25T03:00:17.583Z,12.35
2018-03-25T03:02:45.973Z,13.85
2018-03-25T03:05:14.556Z,13.50
2018-03-25T03:07:43.049Z,14.00
2018-03-25T03:10:12.572Z,14.55
2018-03-25T03:12:40.929Z,13.40
2018-03-25T03:15:09.396Z,13.65
2018-03-25T03:17:38.611Z,14.32
2018-03-25T03:20:06.992Z,12.93
2018-03-25T03:22:35.453Z,14.57
2018-03-25T03:25:03.852Z,15.70
2018-03-25T03:27:32.214Z,12.75
2018-03-25T03:30:00.635Z,13.98
2018-03-25T03:32:29.005Z,13.82
2018-03-25T03:34:57.376Z,12.07
2018-03-25T03:37:25.737Z,12.35
2018-03-25T03:39:54.101Z,12.35
2018-03-25T03:42:22.449Z,14.30
2018-03-25T03:44:50.883Z,12.45
2018-03-25T03:47:19.255Z,13.55
2018-03-25T03:49:47.701Z,14.02
2018-03-25T03:52:16.958Z,13.52
2018-03-25T03:54:45.571Z,13.75
2018-03-25T03:57:14.357Z,13.27
2018-03-25T03:59:43.962Z,12.60
2018-03-25T04:02:12.489Z,13.02
2018-03-25T04:04:42.176Z,13.32
2018-03-25T04:07:10.665Z,12.77
2018-03-25T04:09:39.028Z,12.35
2018-03-25T04:12:07.401Z,11.82
2018-03-25T04:14:35.874Z,13.40
2018-03-25T04:17:04.268Z,12.57
2018-03-25T04:19:32.786Z,14.40
2018-03-25T04:22:02.549Z,12.98
2018-03-25T04:24:30.895Z,14.52
2018-03-25T04:26:59.253Z,13.00
2018-03-25T04:29:27.625Z,13.07
2018-03-25T04:31:56.057Z,13.25
2018-03-25T04:34:24.397Z,13.52
2018-03-25T04:36:53.022Z,14.65
2018-03-25T04:39:21.743Z,14.10
2018-03-25T04:41:50.133Z,13.38
2018-03-25T04:44:18.884Z,13.80
2018-03-25T04:46:47.298Z,13.45
2018-03-25T04:49:15.676Z,13.90
2018-03-25T04:51:44.227Z,16.30
2018-03-25T04:54:12.705Z,15.35
2018-03-25T04:56:41.428Z,13.80
2018-03-25T04:59:10.845Z,14.50
2018-03-25T05:01:39.242Z,13.50
2018-03-25T05:04:07.596Z,14.40
2018-03-25T05:06:35.970Z,12.80
2018-03-25T05:09:04.353Z,12.80
2018-03-25T05:11:32.722Z,14.70
2018-03-25T05:14:01.114Z,14.20
2018-03-25T05:16:29.826Z,14.63
2018-03-25T05:18:58.224Z,13.55
2018-03-25T05:21:27.376Z,14.18
2018-03-25T05:23:55.725Z,13.95
2018-03-25T05:26:24.075Z,13.45
2018-03-25T05:28:52.987Z,14.27
2018-03-25T05:31:21.637Z,16.60
2018-03-25T05:33:50.005Z,14.20
2018-03-25T05:36:18.612Z,14.93
2018-03-25T05:38:47.347Z,12.98
2018-03-25T05:41:15.708Z,15.02
2018-03-25T05:43:44.983Z,13.65
2018-03-25T05:46:13.409Z,14.13
2018-03-25T05:48:41.762Z,13.10
2018-03-25T05:51:10.242Z,14.45
2018-03-25T05:53:38.616Z,14.77
2018-03-25T05:56:07.015Z,13.88
2018-03-25T05:58:36.326Z,13.52
2018-03-25T06:01:04.711Z,14.45
2018-03-25T06:03:33.112Z,15.32
2018-03-25T06:06:02.208Z,13.57
2018-03-25T06:08:30.560Z,13.95
2018-03-25T06:10:58.933Z,13.60
2018-03-25T06:13:27.653Z,13.77
2018-03-25T06:15:56.083Z,14.15
2018-03-25T06:18:24.425Z,13.45
2018-03-25T06:20:52.842Z,13.02
2018-03-25T06:23:21.257Z,16.45
2018-03-25T06:25:50.146Z,14.18
2018-03-25T06:28:18.607Z,15.90
2018-03-25T06:30:47.297Z,13.40
2018-03-25T06:33:16.114Z,14.45
2018-03-25T06:35:44.852Z,14.35
2018-03-25T06:38:13.276Z,14.10
2018-03-25T06:40:41.737Z,14.10
2018-03-25T06:43:10.218Z,15.55
2018-03-25T06:45:39.169Z,15.80
2018-03-25T06:48:07.530Z,15.60
2018-03-25T06:50:35.905Z,14.77
2018-03-25T06:53:04.333Z,15.20
2018-03-25T06:55:32.722Z,14.80
2018-03-25T06:58:01.955Z,15.25
2018-03-25T07:00:30.303Z,14.43
2018-03-25T07:02:58.662Z,15.68
2018-03-25T07:05:27.225Z,14.35
2018-03-25T07:07:55.644Z,16.00
2018-03-25T07:10:24.124Z,16.35
2018-03-25T07:12:52.523Z,14.75
2018-03-25T07:15:20.910Z,15.95
2018-03-25T07:17:49.479Z,14.90
2018-03-25T07:20:17.972Z,14.70
2018-03-25T07:22:46.556Z,14.98
2018-03-25T07:25:15.309Z,14.98
2018-03-25T07:27:44.594Z,14.90
2018-03-25T07:30:12.990Z,15.15
2018-03-25T07:32:41.422Z,15.70
2018-03-25T07:35:10.049Z,14.87
2018-03-25T07:37:38.517Z,16.35
2018-03-25T07:40:06.827Z,15.25
2018-03-25T07:42:35.242Z,14.68
2018-03-25T07:45:03.660Z,18.10
2018-03-25T07:47:32.145Z,15.45
2018-03-25T07:50:01.715Z,16.70
2018-03-25T07:52:30.177Z,16.45
2018-03-25T07:54:58.629Z,16.25
2018-03-25T07:57:27.360Z,15.75
2018-03-25T07:59:55.778Z,13.93
2018-03-25T08:02:24.216Z,14.98
2018-03-25T08:04:53.126Z,16.37
2018-03-25T08:07:21.753Z,14.25
2018-03-25T08:09:51.449Z,14.57
2018-03-25T08:12:21.150Z,15.75
2018-03-25T08:14:49.764Z,14.45
2018-03-25T08:17:18.328Z,15.02
2018-03-25T08:19:48.323Z,15.40
2018-03-25T08:22:16.982Z,15.05
2018-03-25T08:24:45.425Z,15.93
2018-03-25T08:27:14.205Z,17.05
2018-03-25T08:29:42.864Z,15.13
2018-03-25T08:32:11.607Z,16.02
2018-03-25T08:34:40.151Z,14.75
2018-03-25T08:37:08.521Z,16.20
2018-03-25T08:39:37.060Z,17.62
2018-03-25T08:42:05.920Z,19.27
2018-03-25T08:44:34.306Z,15.35
2018-03-25T08:47:02.870Z,15.88
2018-03-25T08:49:31.260Z,15.95
2018-03-25T08:51:59.624Z,14.52
2018-03-25T08:54:27.998Z,16.42
2018-03-25T08:56:56.508Z,17.48
2018-03-25T08:59:24.864Z,16.17
2018-03-25T09:01:53.377Z,15.68
2018-03-25T09:04:22.032Z,15.80
2018-03-25T09:06:50.433Z,16.20
2018-03-25T09:09:19.099Z,15.25
2018-03-25T09:11:47.814Z,17.30
2018-03-25T09:14:16.563Z,19.20
2018-03-25T09:16:44.998Z,15.00
2018-03-25T09:19:14.573Z,16.65
2018-03-25T09:21:43.764Z,17.77
2018-03-25T09:24:13.008Z,16.40
2018-03-25T09:26:41.791Z,16.60
2018-03-25T09:29:10.228Z,16.30
2018-03-25T09:31:38.802Z,17.10
2018-03-25T09:34:07.619Z,15.38
2018-03-25T09:36:36.340Z,17.02
2018-03-25T09:39:04.712Z,17.05
2018-03-25T09:41:33.444Z,16.08
2018-03-25T09:44:01.916Z,16.05
2018-03-25T09:46:30.543Z,17.55
2018-03-25T09:48:58.995Z,16.45
2018-03-25T09:51:27.596Z,16.60
2018-03-25T09:53:55.992Z,16.55
2018-03-25T09:56:24.465Z,16.60
2018-03-25T09:58:53.431Z,16.58
2018-03-25T10:01:28.112Z,22.17
2018-03-25T10:03:56.672Z,17.87
2018-03-25T10:06:25.418Z,18.33
2018-03-25T10:08:54.273Z,16.17
2018-03-25T10:11:22.937Z,19.30
2018-03-25T10:13:51.728Z,18.20
2018-03-25T10:16:21.245Z,17.12
2018-03-25T10:18:50.201Z,17.65
2018-03-25T10:21:18.790Z,16.60
2018-03-25T10:23:47.586Z,17.35
2018-03-25T10:26:17.872Z,16.58
2018-03-25T10:28:46.783Z,17.73
2018-03-25T10:31:16.272Z,15.68
2018-03-25T10:33:45.983Z,16.75
2018-03-25T10:36:14.945Z,17.83
2018-03-25T10:38:44.704Z,15.73
2018-03-25T10:41:14.324Z,17.30
2018-03-25T10:43:43.610Z,15.50
2018-03-25T10:46:13.216Z,17.05
2018-03-25T10:48:42.881Z,16.40
2018-03-25T10:51:11.398Z,16.37
2018-03-25T10:53:39.918Z,17.20
2018-03-25T10:56:08.600Z,15.90
2018-03-25T10:58:37.353Z,16.98
2018-03-25T11:01:06.059Z,15.75
2018-03-25T11:03:35.189Z,17.27
2018-03-25T11:06:04.027Z,17.10
2018-03-25T11:08:33.301Z,16.00
2018-03-25T11:11:01.814Z,18.93
2018-03-25T11:13:30.169Z,17.85
2018-03-25T11:15:59.935Z,16.67
2018-03-25T11:18:28.364Z,18.43
2018-03-25T11:20:56.892Z,16.48
2018-03-25T11:23:25.776Z,17.97
2018-03-25T11:25:55.101Z,17.00
2018-03-25T11:28:23.983Z,17.40
2018-03-25T11:30:53.030Z,18.15
2018-03-25T11:33:22.510Z,16.60
2018-03-25T11:35:51.525Z,16.92
2018-03-25T11:38:20.957Z,16.62
2018-03-25T11:40:50.178Z,17.10
2018-03-25T11:43:18.899Z,17.70
2018-03-25T11:45:48.330Z,17.63
2018-03-25T11:48:16.834Z,19.00
2018-03-25T11:50:45.374Z,17.87
2018-03-25T11:53:14.122Z,17.97
2018-03-25T11:55:43.969Z,17.40
2018-03-25T11:58:16.354Z,18.30
2018-03-25T12:00:45.037Z,18.00
2018-03-25T12:03:13.753Z,18.08
2018-03-25T12:05:42.209Z,16.23
2018-03-25T12:08:11.473Z,16.98
2018-03-25T12:10:39.885Z,18.10
2018-03-25T12:13:08.284Z,19.70
2018-03-25T12:15:36.762Z,19.62
2018-03-25T12:18:05.237Z,19.10
2018-03-25T12:20:33.613Z,17.30
2018-03-25T12:23:02.065Z,17.20
2018-03-25T12:25:30.497Z,17.70
2018-03-25T12:27:59.855Z,19.10
2018-03-25T12:30:28.917Z,16.23
2018-03-25T12:35:30.978Z,19.33
2018-03-25T12:37:59.847Z,20.65
2018-03-25T12:40:28.248Z,18.92
2018-03-25T12:42:58.590Z,19.02
2018-03-25T12:45:27.153Z,18.45
2018-03-25T12:47:58.651Z,18.23
2018-03-25T12:50:27.950Z,17.65
2018-03-25T12:52:56.851Z,18.75
2018-03-25T12:55:25.533Z,20.77
2018-03-25T12:57:55.096Z,18.10
2018-03-25T13:00:25.478Z,20.30
2018-03-25T13:02:53.992Z,19.12
2018-03-25T13:05:22.995Z,18.70
2018-03-25T13:07:52.297Z,18.87
2018-03-25T13:10:21.285Z,22.20
2018-03-25T13:12:50.570Z,21.12
2018-03-25T13:15:20.324Z,19.60
2018-03-25T13:17:49.217Z,20.00
2018-03-25T13:20:18.333Z,18.85
2018-03-25T13:22:47.647Z,20.00
2018-03-25T13:25:16.930Z,21.40
2018-03-25T13:27:45.774Z,19.53
2018-03-25T13:30:14.382Z,20.00
2018-03-25T13:32:43.066Z,18.80
2018-03-25T13:35:11.721Z,20.67
2018-03-25T13:37:40.211Z,19.53
2018-03-25T13:40:08.693Z,18.35
2018-03-25T13:42:37.288Z,21.42
2018-03-25T13:45:05.718Z,20.87
2018-03-25T13:47:34.124Z,18.80
2018-03-25T13:50:03.015Z,19.02
2018-03-25T13:52:31.501Z,18.63
2018-03-25T13:54:59.991Z,20.40
2018-03-25T13:57:28.758Z,21.33
2018-03-25T13:59:57.283Z,20.10
2018-03-25T14:02:25.725Z,18.60
2018-03-25T14:04:55.487Z,18.17
2018-03-25T14:07:24.127Z,18.53
2018-03-25T14:09:52.810Z,19.60
2018-03-25T14:12:22.790Z,18.93
2018-03-25T14:14:51.394Z,18.73
2018-03-25T14:17:19.870Z,19.13
2018-03-25T14:19:48.889Z,19.33
2018-03-25T14:22:17.338Z,19.93
2018-03-25T14:24:45.879Z,19.87
2018-03-25T14:27:14.597Z,20.77
2018-03-25T14:29:44.300Z,18.87
2018-03-25T14:32:13.148Z,20.47
2018-03-25T14:34:43.335Z,20.00
2018-03-25T14:37:13.230Z,20.70
2018-03-25T14:39:42.125Z,18.47
2018-03-25T14:42:10.630Z,17.70
2018-03-25T14:44:39.068Z,19.90
2018-03-25T14:47:08.454Z,20.20
2018-03-25T14:49:36.986Z,17.93
2018-03-25T14:52:05.445Z,20.20
2018-03-25T14:54:33.897Z,19.87
2018-03-25T14:57:03.990Z,19.70
2018-03-25T14:59:32.709Z,20.47
2018-03-25T15:02:01.378Z,19.63
2018-03-25T15:04:29.892Z,20.60
2018-03-25T15:06:58.283Z,19.40
2018-03-25T15:09:27.319Z,19.57
2018-03-25T15:11:57.750Z,18.00
2018-03-25T15:14:26.271Z,19.83
2018-03-25T15:16:54.689Z,19.57
2018-03-25T15:19:24.459Z,20.93
2018-03-25T15:21:52.906Z,18.62
2018-03-25T15:24:21.383Z,19.25
2018-03-25T15:26:50.232Z,19.65
2018-03-25T15:29:18.670Z,20.15
2018-03-25T15:31:47.188Z,20.45
2018-03-25T15:34:18.032Z,19.67
2018-03-25T15:36:46.744Z,19.35
2018-03-25T15:39:15.221Z,19.10
2018-03-25T15:41:43.990Z,20.55
2018-03-25T15:44:12.494Z,20.45
2018-03-25T15:46:41.190Z,19.35
2018-03-25T15:49:09.650Z,23.02
2018-03-25T15:51:38.028Z,24.48
2018-03-25T15:54:06.449Z,26.27
2018-03-25T15:56:35.277Z,33.47
2018-03-25T15:59:03.681Z,32.28
2018-03-25T16:01:32.043Z,31.83
2018-03-25T16:04:01.542Z,39.15
2018-03-25T16:06:29.988Z,38.95
2018-03-25T16:08:58.390Z,29.63
2018-03-25T16:11:26.821Z,24.55
2018-03-25T16:13:55.231Z,21.92
2018-03-25T16:16:23.805Z,20.83
2018-03-25T16:18:52.413Z,20.52
2018-03-25T16:21:20.866Z,21.67
2018-03-25T16:23:50.385Z,20.98
2018-03-25T16:26:19.628Z,21.80
2018-03-25T16:28:48.282Z,24.58
2018-03-25T16:31:16.813Z,21.42
2018-03-25T16:33:45.467Z,19.10
2018-03-25T16:36:14.166Z,20.05
2018-03-25T16:38:42.819Z,21.67
2018-03-25T16:41:13.220Z,20.77
2018-03-25T16:43:41.748Z,24.85
2018-03-25T16:46:10.122Z,22.55
2018-03-25T16:48:38.837Z,22.80
2018-03-25T16:51:07.281Z,22.15
2018-03-25T16:53:36.887Z,22.00
2018-03-25T16:56:05.370Z,25.42
2018-03-25T16:58:33.770Z,26.15
2018-03-25T17:01:02.295Z,23.67
2018-03-25T17:03:30.747Z,22.90
2018-03-25T17:05:59.269Z,26.75
2018-03-25T17:08:28.604Z,25.67
2018-03-25T17:10:57.246Z,24.20
2018-03-25T17:13:25.712Z,25.67
2018-03-25T17:15:54.218Z,24.27
2018-03-25T17:18:23.541Z,27.23
2018-03-25T17:20:52.217Z,25.62
2018-03-25T17:23:20.916Z,25.02
2018-03-25T17:25:50.303Z,25.62
2018-03-25T17:28:18.743Z,24.63
2018-03-25T17:30:47.438Z,25.17
2018-03-25T17:33:16.246Z,27.05
2018-03-25T17:35:44.847Z,25.83
2018-03-25T17:38:13.370Z,26.05
2018-03-25T17:40:42.340Z,26.70
2018-03-25T17:43:10.979Z,27.45
2018-03-25T17:45:39.621Z,25.67
2018-03-25T17:48:08.628Z,28.25
2018-03-25T17:50:37.089Z,29.15
2018-03-25T17:53:05.554Z,30.65
2018-03-25T17:55:34.024Z,27.27
2018-03-25T17:58:02.514Z,29.37
2018-03-25T18:00:30.920Z,31.05
2018-03-25T18:03:00.443Z,29.27
2018-03-25T18:05:28.857Z,30.80
2018-03-25T18:07:57.291Z,29.67
2018-03-25T18:10:26.566Z,31.00
2018-03-25T18:12:55.065Z,31.20
2018-03-25T18:15:23.551Z,31.42
2018-03-25T18:17:52.662Z,31.23
2018-03-25T18:20:21.728Z,32.47
2018-03-25T18:22:50.742Z,30.12
2018-03-25T18:25:20.419Z,30.30
2018-03-25T18:27:49.763Z,31.45
2018-03-25T18:30:18.666Z,34.75
2018-03-25T18:32:48.049Z,32.10
2018-03-25T18:35:17.635Z,34.45
2018-03-25T18:37:46.543Z,32.42
2018-03-25T18:40:16.823Z,34.17
2018-03-25T18:42:45.898Z,36.05
2018-03-25T18:45:15.703Z,33.45
2018-03-25T18:47:46.374Z,36.00
2018-03-25T18:50:15.458Z,36.70
2018-03-25T18:52:44.118Z,37.63
2018-03-25T18:55:14.007Z,37.67
2018-03-25T18:57:43.826Z,35.95
2018-03-25T19:00:12.512Z,37.65
2018-03-25T19:02:43.294Z,34.53
2018-03-25T19:05:12.233Z,37.35
2018-03-25T19:07:40.830Z,40.17
2018-03-25T19:10:09.449Z,39.25
2018-03-25T19:12:38.959Z,40.20
2018-03-25T19:15:07.334Z,42.47
2018-03-25T19:17:36.720Z,43.65
2018-03-25T19:20:05.216Z,42.70
2018-03-25T19:22:33.977Z,41.47
2018-03-25T19:25:02.701Z,42.62
2018-03-25T19:27:31.149Z,41.40
2018-03-25T19:29:59.789Z,39.97
2018-03-25T19:32:28.748Z,39.90
2018-03-25T19:34:57.298Z,42.62
2018-03-25T19:37:25.884Z,41.65
2018-03-25T19:39:54.599Z,42.75
2018-03-25T19:42:23.730Z,39.33
2018-03-25T19:44:52.551Z,41.40
2018-03-25T19:47:21.465Z,40.65
2018-03-25T19:49:50.215Z,40.12
2018-03-25T19:52:18.887Z,42.45
2018-03-25T19:54:49.876Z,38.22
2018-03-25T19:57:18.330Z,39.03
2018-03-25T19:59:47.072Z,39.08
2018-03-25T20:02:16.288Z,38.67
2018-03-25T20:04:44.731Z,39.05
2018-03-25T20:07:13.227Z,38.00
2018-03-25T20:09:41.730Z,33.40
2018-03-25T20:12:10.286Z,34.60
2018-03-25T20:14:38.708Z,36.03
2018-03-25T20:17:07.151Z,36.33
2018-03-25T20:19:35.589Z,33.00
2018-03-25T20:22:03.960Z,32.20
2018-03-25T20:24:32.639Z,30.58
2018-03-25T20:27:01.065Z,32.92
2018-03-25T20:29:29.576Z,32.60
2018-03-25T20:31:58.028Z,31.95
2018-03-25T20:34:26.432Z,33.60
2018-03-25T20:36:54.874Z,33.10
2018-03-25T20:42:15.395Z,34.22
2018-03-25T20:44:44.023Z,35.55
2018-03-25T20:47:12.493Z,34.60
2018-03-25T20:49:42.005Z,33.20
2018-03-25T20:52:10.447Z,36.03
2018-03-25T20:54:39.064Z,34.75
2018-03-25T20:57:07.926Z,36.03
2018-03-25T20:59:36.350Z,35.63
2018-03-25T21:02:04.770Z,35.17
2018-03-25T21:04:33.299Z,34.65
2018-03-25T21:07:01.698Z,36.42
2018-03-25T21:09:30.480Z,34.33
2018-03-25T21:11:59.490Z,34.00
2018-03-25T21:14:27.894Z,34.65
2018-03-25T21:16:56.328Z,36.17
2018-03-25T21:19:25.900Z,37.08
2018-03-25T21:21:54.424Z,37.97
2018-03-25T21:24:22.960Z,37.78
2018-03-25T21:26:52.622Z,36.28
2018-03-25T21:29:21.257Z,35.00
2018-03-25T21:31:49.728Z,36.70
2018-03-25T21:34:18.494Z,34.97
2018-03-25T21:36:47.102Z,37.90
2018-03-25T21:39:15.619Z,36.75
2018-03-25T21:41:44.115Z,35.95
2018-03-25T21:44:12.816Z,41.40
2018-03-25T21:46:41.357Z,40.10
2018-03-25T21:49:10.485Z,39.92
2018-03-25T21:51:39.699Z,37.45
2018-03-25T21:54:08.237Z,41.67
2018-03-25T21:56:37.145Z,40.92
2018-03-25T21:59:05.531Z,39.60
2018-03-25T22:01:33.971Z,42.70
2018-03-25T22:04:02.427Z,43.65
2018-03-25T22:06:30.899Z,44.20
2018-03-25T22:08:59.318Z,44.75
2018-03-25T22:11:28.942Z,44.60
2018-03-25T22:13:57.442Z,44.00
2018-03-25T22:16:25.918Z,44.10
2018-03-25T22:19:01.645Z,47.92
2018-03-25T22:21:31.330Z,46.17
2018-03-25T22:23:59.780Z,43.13
2018-03-25T22:26:28.775Z,45.03
2018-03-25T22:28:57.604Z,44.70
2018-03-25T22:31:26.762Z,46.15
2018-03-25T22:33:55.423Z,45.53
2018-03-25T22:36:24.321Z,46.95
2018-03-25T22:38:52.893Z,46.05
2018-03-25T22:41:21.446Z,46.13
2018-03-25T22:43:50.191Z,44.85
2018-03-25T22:46:18.817Z,44.42
2018-03-25T22:48:47.272Z,43.92
2018-03-25T22:51:16.627Z,43.60
2018-03-25T22:53:44.997Z,42.67
2018-03-25T22:56:13.412Z,46.08
2018-03-25T22:58:42.259Z,42.62
2018-03-25T23:01:10.934Z,43.83
2018-03-25T23:03:46.440Z,41.70
2018-03-25T23:06:14.958Z,42.72
2018-03-25T23:08:43.338Z,42.72
2018-03-25T23:11:13.662Z,44.45
2018-03-25T23:13:42.175Z,43.25
2018-03-25T23:16:10.933Z,40.63
2018-03-25T23:18:39.369Z,38.85
2018-03-25T23:21:07.815Z,39.40
2018-03-25T23:23:36.819Z,41.92
2018-03-25T23:26:06.929Z,40.67
2018-03-25T23:28:35.515Z,41.95
2018-03-25T23:31:03.953Z,43.33
2018-03-25T23:33:33.108Z,39.53
2018-03-25T23:36:01.605Z,40.12
2018-03-25T23:38:30.292Z,38.47
2018-03-25T23:40:59.014Z,39.10
2018-03-25T23:43:27.495Z,37.83
2018-03-25T23:45:56.446Z,39.38
2018-03-25T23:48:25.330Z,40.42
2018-03-25T23:50:54.119Z,39.53
2018-03-25T23:53:23.687Z,39.92
2018-03-25T23:55:52.315Z,40.33
2018-03-25T23:58:20.809Z,38.63
